createdAt,value
2022-11-16T00:00:21.464Z,1.600
2022-11-16T00:01:34.298Z,1.550
2022-11-16T00:02:35.990Z,1.800
2022-11-16T00:03:30.524Z,1.800
2022-11-16T00:04:40.870Z,2.000
2022-11-16T00:05:32.908Z,2.100
2022-11-16T00:06:54.020Z,2.200
2022-11-16T00:07:33.007Z,2.350
2022-11-16T00:08:53.769Z,2.300
2022-11-16T00:09:41.680Z,2.100
2022-11-16T00:10:41.830Z,2.500
2022-11-16T00:11:30.258Z,2.200
2022-11-16T00:12:22.999Z,2.700
2022-11-16T00:13:34.883Z,2.700
2022-11-16T00:14:31.988Z,2.550
2022-11-16T00:15:30.483Z,2.700
2022-11-16T00:16:23.788Z,3.000
2022-11-16T00:17:35.474Z,2.700
2022-11-16T00:18:26.704Z,2.600
2022-11-16T00:19:24.665Z,2.600
2022-11-16T00:20:52.449Z,2.400
2022-11-16T00:21:35.727Z,2.750
2022-11-16T00:22:28.574Z,2.900
2022-11-16T00:23:27.941Z,2.900
2022-11-16T00:24:34.181Z,2.400
2022-11-16T00:25:35.818Z,2.750
2022-11-16T00:26:28.992Z,2.400
2022-11-16T00:27:21.611Z,2.300
2022-11-16T00:28:39.284Z,2.100
2022-11-16T00:29:23.262Z,2.500
2022-11-16T00:30:23.899Z,2.650
2022-11-16T00:31:41.988Z,2.700
2022-11-16T00:32:39.386Z,2.800
2022-11-16T00:33:33.936Z,2.600
2022-11-16T00:34:24.996Z,2.600
2022-11-16T00:35:28.487Z,2.500
2022-11-16T00:36:38.064Z,2.550
2022-11-16T00:37:33.735Z,2.300
2022-11-16T00:38:23.083Z,2.200
2022-11-16T00:39:40.587Z,2.600
2022-11-16T00:40:34.922Z,2.550
2022-11-16T00:41:24.477Z,2.500
2022-11-16T00:42:47.984Z,2.400
2022-11-16T00:43:41.382Z,2.500
2022-11-16T00:44:35.977Z,2.200
2022-11-16T00:45:25.270Z,2.300
2022-11-16T00:46:24.768Z,2.450
2022-11-16T00:47:39.107Z,2.450
2022-11-16T00:48:35.908Z,2.500
2022-11-16T00:49:26.682Z,2.200
2022-11-16T00:50:45.201Z,2.100
2022-11-16T00:51:39.555Z,2.400
2022-11-16T00:52:27.323Z,2.200
2022-11-16T00:53:22.548Z,2.300
2022-11-16T00:54:41.866Z,2.300
2022-11-16T00:55:34.779Z,2.600
2022-11-16T00:56:20.632Z,2.500
2022-11-16T00:57:21.080Z,2.250
2022-11-16T00:58:37.076Z,1.700
2022-11-16T00:59:28.371Z,1.900
2022-11-16T01:00:27.641Z,1.700
2022-11-16T01:01:20.493Z,1.850
2022-11-16T01:02:39.391Z,1.800
2022-11-16T01:03:27.451Z,2.100
2022-11-16T01:04:25.826Z,1.900
2022-11-16T01:05:45.282Z,1.900
2022-11-16T01:06:33.174Z,1.800
2022-11-16T01:07:30.528Z,2.100
2022-11-16T01:08:24.293Z,2.500
2022-11-16T01:09:35.518Z,2.500
2022-11-16T01:10:26.792Z,2.200
2022-11-16T01:11:30.408Z,1.900
2022-11-16T01:12:22.662Z,1.750
2022-11-16T01:13:36.516Z,1.800
2022-11-16T01:14:25.257Z,1.950
2022-11-16T01:15:28.384Z,2.000
2022-11-16T01:16:22.278Z,2.100
2022-11-16T01:17:29.392Z,2.200
2022-11-16T01:18:32.914Z,2.400
2022-11-16T01:19:23.705Z,2.700
2022-11-16T01:20:30.345Z,2.300
2022-11-16T01:21:24.817Z,2.400
2022-11-16T01:22:32.491Z,2.200
2022-11-16T01:23:27.534Z,2.150
2022-11-16T01:24:34.627Z,2.000
2022-11-16T01:25:19.479Z,2.400
2022-11-16T01:26:31.224Z,2.050
2022-11-16T01:27:20.759Z,2.200
2022-11-16T01:28:27.218Z,1.800
2022-11-16T01:29:41.573Z,2.050
2022-11-16T01:30:29.421Z,2.400
2022-11-16T01:31:26.130Z,2.600
2022-11-16T01:32:22.908Z,2.300
2022-11-16T01:33:35.480Z,2.000
2022-11-16T01:34:25.878Z,2.300
2022-11-16T01:35:35.853Z,2.150
2022-11-16T01:36:40.510Z,2.000
2022-11-16T01:37:32.478Z,1.950
2022-11-16T01:38:29.998Z,1.800
2022-11-16T01:39:24.133Z,1.900
2022-11-16T01:40:36.595Z,2.100
2022-11-16T01:41:29.018Z,2.300
2022-11-16T01:42:25.757Z,1.950
2022-11-16T01:43:24.376Z,1.850
2022-11-16T01:44:37.590Z,1.500
2022-11-16T01:45:32.638Z,1.750
2022-11-16T01:46:29.386Z,1.800
2022-11-16T01:47:42.390Z,1.700
2022-11-16T01:48:29.659Z,1.500
2022-11-16T01:49:27.878Z,1.600
2022-11-16T01:50:23.886Z,1.650
2022-11-16T01:51:46.765Z,1.600
2022-11-16T01:52:36.181Z,1.500
2022-11-16T01:53:27.780Z,1.600
2022-11-16T01:54:22.272Z,1.500
2022-11-16T01:55:38.213Z,1.600
2022-11-16T01:56:31.486Z,1.350
2022-11-16T01:57:22.683Z,1.550
2022-11-16T01:58:47.380Z,1.700
2022-11-16T01:59:25.219Z,1.800
2022-11-16T02:01:00.634Z,1.700
2022-11-16T02:01:24.172Z,1.300
2022-11-16T02:02:44.673Z,1.500
2022-11-16T02:03:35.361Z,1.550
2022-11-16T02:04:35.155Z,1.600
2022-11-16T02:45:38.698Z,1.250
2022-11-16T02:46:30.935Z,1.300
2022-11-16T02:47:26.075Z,1.500
2022-11-16T02:48:21.379Z,1.350
2022-11-16T02:49:35.830Z,1.300
2022-11-16T02:50:22.942Z,1.200
2022-11-16T02:52:36.838Z,1.200
2022-11-16T02:52:42.905Z,1.350
2022-11-16T02:54:26.676Z,1.000
2022-11-16T03:26:51.446Z,1.500
2022-11-16T03:27:38.141Z,1.400
2022-11-16T03:28:21.738Z,1.500
2022-11-16T03:29:31.074Z,1.500
2022-11-16T03:30:40.926Z,1.400
2022-11-16T03:31:28.710Z,1.500
2022-11-16T03:32:27.701Z,1.500
2022-11-16T03:33:43.884Z,1.300
2022-11-16T03:34:35.509Z,1.600
2022-11-16T03:35:25.151Z,1.250
2022-11-16T03:36:44.948Z,1.300
2022-11-16T03:37:48.707Z,1.400
2022-11-16T03:38:33.976Z,1.400
2022-11-16T03:39:33.080Z,1.100
2022-11-16T03:40:29.596Z,1.300
2022-11-16T03:41:41.593Z,1.300
2022-11-16T03:42:24.681Z,1.200
2022-11-16T03:43:56.845Z,1.300
2022-11-16T03:44:49.771Z,1.400
2022-11-16T03:45:33.799Z,1.500
2022-11-16T03:46:20.744Z,1.400
2022-11-16T03:47:28.797Z,1.400
2022-11-16T03:48:21.691Z,1.300
2022-11-16T03:49:30.393Z,1.300
2022-11-16T03:50:26.720Z,1.300
2022-11-16T03:51:19.497Z,1.500
2022-11-16T03:52:33.620Z,1.400
2022-11-16T03:53:24.118Z,1.250
2022-11-16T03:54:32.484Z,1.300
2022-11-16T03:55:26.561Z,1.200
2022-11-16T03:56:30.927Z,1.100
2022-11-16T03:57:26.548Z,1.300
2022-11-16T03:58:27.369Z,1.300
2022-11-16T03:59:38.579Z,1.400
2022-11-16T04:00:27.354Z,1.400
2022-11-16T04:01:44.502Z,1.350
2022-11-16T04:02:31.376Z,1.200
2022-11-16T04:03:33.811Z,1.450
2022-11-16T04:04:20.627Z,1.700
2022-11-16T04:05:27.800Z,1.600
2022-11-16T04:06:21.998Z,1.450
2022-11-16T04:07:29.388Z,1.800
2022-11-16T04:08:23.458Z,1.750
2022-11-16T04:09:35.993Z,1.800
2022-11-16T04:10:37.976Z,1.800
2022-11-16T04:11:26.755Z,1.500
2022-11-16T04:12:34.957Z,1.700
2022-11-16T04:13:24.356Z,1.700
2022-11-16T04:14:26.204Z,1.800
2022-11-16T04:15:40.693Z,1.600
2022-11-16T04:16:38.812Z,1.900
2022-11-16T04:17:31.928Z,1.400
2022-11-16T04:18:23.312Z,1.700
2022-11-16T04:20:35.160Z,1.300
2022-11-16T04:21:23.330Z,1.400
2022-11-16T04:22:22.720Z,1.400
2022-11-16T04:23:42.345Z,2.000
2022-11-16T04:24:34.267Z,2.300
2022-11-16T04:25:25.758Z,2.300
2022-11-16T04:26:21.783Z,2.000
2022-11-16T04:27:32.634Z,2.050
2022-11-16T04:28:30.419Z,2.200
2022-11-16T04:29:56.325Z,2.200
2022-11-16T04:30:48.540Z,2.400
2022-11-16T04:31:30.266Z,2.500
2022-11-16T04:32:32.613Z,2.500
2022-11-16T04:33:21.306Z,2.600
2022-11-16T04:34:38.489Z,2.300
2022-11-16T04:35:29.344Z,1.900
2022-11-16T04:36:25.117Z,2.300
2022-11-16T04:37:37.062Z,2.250
2022-11-16T04:38:46.924Z,1.800
2022-11-16T04:39:56.743Z,2.200
2022-11-16T04:40:22.796Z,2.200
2022-11-16T04:41:21.594Z,2.300
2022-11-16T04:42:25.727Z,2.150
2022-11-16T04:43:28.882Z,2.000
2022-11-16T04:44:25.912Z,2.250
2022-11-16T04:45:51.910Z,1.900
2022-11-16T04:46:46.993Z,1.900
2022-11-16T04:47:25.205Z,2.200
2022-11-16T04:48:29.581Z,1.800
2022-11-16T04:49:39.721Z,1.750
2022-11-16T04:50:30.762Z,1.600
2022-11-16T04:51:23.427Z,2.300
2022-11-16T04:52:52.434Z,1.900
2022-11-16T04:53:26.724Z,2.400
2022-11-16T04:54:33.391Z,2.600
2022-11-16T04:55:29.829Z,1.900
2022-11-16T04:56:25.375Z,1.950
2022-11-16T04:57:36.599Z,2.300
2022-11-16T04:58:24.746Z,2.500
2022-11-16T04:59:28.268Z,2.100
2022-11-16T05:00:42.476Z,1.800
2022-11-16T05:01:42.387Z,1.900
2022-11-16T05:02:33.953Z,1.800
2022-11-16T05:03:26.919Z,2.000
2022-11-16T05:04:21.760Z,1.900
2022-11-16T05:05:26.638Z,1.900
2022-11-16T05:06:24.806Z,1.900
2022-11-16T05:07:47.735Z,1.850
2022-11-16T05:08:36.336Z,1.900
2022-11-16T05:09:22.274Z,2.000
2022-11-16T05:10:36.215Z,2.700
2022-11-16T05:11:25.769Z,3.100
2022-11-16T05:12:33.381Z,3.000
2022-11-16T05:13:31.979Z,2.300
2022-11-16T05:14:21.734Z,2.850
2022-11-16T05:15:51.773Z,2.500
2022-11-16T05:16:26.868Z,2.400
2022-11-16T05:17:38.160Z,2.400
2022-11-16T05:18:30.704Z,2.200
2022-11-16T05:19:23.239Z,2.300
2022-11-16T05:20:19.841Z,2.600
2022-11-16T05:21:22.185Z,2.600
2022-11-16T05:22:36.100Z,2.850
2022-11-16T05:23:29.470Z,3.000
2022-11-16T05:24:43.542Z,2.350
2022-11-16T05:25:37.173Z,2.500
2022-11-16T05:26:36.930Z,2.400
2022-11-16T05:27:26.043Z,2.800
2022-11-16T05:28:30.887Z,2.500
2022-11-16T05:29:45.693Z,2.900
2022-11-16T05:30:30.702Z,2.800
2022-11-16T05:31:46.594Z,2.700
2022-11-16T05:32:58.901Z,2.300
2022-11-16T05:33:32.625Z,2.400
2022-11-16T05:34:28.586Z,2.500
2022-11-16T05:35:33.541Z,2.500
2022-11-16T05:36:27.971Z,2.300
2022-11-16T05:37:36.953Z,2.300
2022-11-16T05:38:26.679Z,2.800
2022-11-16T05:39:42.366Z,2.450
2022-11-16T05:40:35.277Z,2.400
2022-11-16T05:41:28.388Z,2.100
2022-11-16T05:42:19.849Z,2.550
2022-11-16T05:43:30.867Z,2.600
2022-11-16T05:44:25.888Z,2.500
2022-11-16T05:45:23.392Z,2.650
2022-11-16T05:46:47.745Z,2.400
2022-11-16T05:47:39.910Z,2.500
2022-11-16T05:48:33.365Z,2.300
2022-11-16T05:49:22.207Z,2.300
2022-11-16T05:50:42.320Z,2.600
2022-11-16T05:51:28.806Z,2.750
2022-11-16T05:52:26.499Z,2.800
2022-11-16T05:54:01.669Z,2.700
2022-11-16T05:54:47.130Z,2.700
2022-11-16T05:55:26.873Z,2.800
2022-11-16T05:56:23.633Z,2.800
2022-11-16T05:57:21.199Z,2.500
2022-11-16T05:58:33.440Z,2.950
2022-11-16T05:59:33.334Z,3.800
2022-11-16T06:00:55.366Z,4.200
2022-11-16T06:01:33.338Z,4.300
2022-11-16T06:02:44.603Z,3.850
2022-11-16T06:03:34.468Z,4.200
2022-11-16T06:04:25.215Z,3.800
2022-11-16T06:05:40.495Z,4.100
2022-11-16T06:06:28.573Z,4.300
2022-11-16T06:07:21.711Z,4.500
2022-11-16T06:08:52.007Z,4.700
2022-11-16T06:09:40.448Z,4.750
2022-11-16T06:10:32.874Z,5.000
2022-11-16T06:11:35.361Z,4.700
2022-11-16T06:12:26.333Z,5.100
2022-11-16T06:13:32.643Z,5.400
2022-11-16T06:14:22.689Z,4.400
2022-11-16T06:15:57.544Z,4.550
2022-11-16T06:16:47.844Z,4.700
2022-11-16T06:17:30.608Z,5.500
2022-11-16T06:18:36.347Z,5.450
2022-11-16T06:19:32.525Z,4.300
2022-11-16T06:20:22.681Z,3.900
2022-11-16T06:21:32.502Z,3.900
2022-11-16T06:22:26.707Z,3.900
2022-11-16T06:23:27.590Z,4.050
2022-11-16T06:24:37.759Z,3.900
2022-11-16T06:25:24.553Z,3.700
2022-11-16T06:26:31.195Z,3.500
2022-11-16T06:27:43.200Z,3.600
2022-11-16T06:28:30.868Z,3.800
2022-11-16T06:29:31.403Z,3.800
2022-11-16T06:30:42.477Z,3.200
2022-11-16T06:31:37.819Z,3.500
2022-11-16T06:32:26.118Z,3.100
2022-11-16T06:33:52.530Z,2.900
2022-11-16T06:34:23.931Z,3.100
2022-11-16T06:35:22.718Z,2.700
2022-11-16T06:36:30.339Z,2.800
2022-11-16T06:37:24.981Z,2.850
2022-11-16T06:38:40.446Z,2.700
2022-11-16T06:39:27.824Z,2.600
2022-11-16T06:40:29.338Z,2.700
2022-11-16T06:41:37.581Z,2.400
2022-11-16T06:42:28.099Z,2.300
2022-11-16T06:43:23.392Z,2.400
2022-11-16T06:44:29.587Z,2.400
2022-11-16T06:45:27.106Z,2.400
2022-11-16T06:46:30.201Z,2.200
2022-11-16T06:47:46.390Z,2.250
2022-11-16T06:48:38.246Z,2.300
2022-11-16T06:49:30.987Z,2.600
2022-11-16T06:50:26.016Z,2.300
2022-11-16T06:51:23.158Z,2.500
2022-11-16T06:52:24.377Z,2.550
2022-11-16T06:53:36.086Z,2.800
2022-11-16T06:54:21.865Z,2.600
2022-11-16T06:55:46.403Z,2.700
2022-11-16T06:56:37.311Z,2.600
2022-11-16T06:57:29.656Z,2.400
2022-11-16T06:58:20.679Z,2.200
2022-11-16T06:59:30.234Z,2.150
2022-11-16T07:00:23.315Z,2.100
2022-11-16T07:01:22.571Z,2.300
2022-11-16T07:02:19.907Z,2.600
2022-11-16T07:03:34.130Z,2.200
2022-11-16T07:04:33.310Z,2.500
2022-11-16T07:05:24.333Z,2.800
2022-11-16T07:06:32.501Z,2.650
2022-11-16T07:08:27.728Z,2.500
2022-11-16T07:09:41.716Z,2.450
2022-11-16T07:10:43.784Z,2.500
2022-11-16T07:11:37.838Z,2.400
2022-11-16T07:12:24.891Z,2.500
2022-11-16T07:13:23.831Z,2.600
2022-11-16T07:14:32.629Z,2.550
2022-11-16T07:15:29.949Z,2.400
2022-11-16T07:17:00.408Z,2.600
2022-11-16T07:17:49.627Z,2.400
2022-11-16T07:18:40.436Z,2.600
2022-11-16T07:19:26.012Z,2.300
2022-11-16T07:20:27.129Z,2.300
2022-11-16T07:21:34.729Z,2.650
2022-11-16T07:22:27.133Z,2.300
2022-11-16T07:23:20.601Z,2.350
2022-11-16T07:25:29.803Z,2.550
2022-11-16T07:26:29.815Z,2.500
2022-11-16T07:27:33.620Z,2.300
2022-11-16T07:28:47.962Z,2.500
2022-11-16T07:29:35.447Z,2.200
2022-11-16T07:30:23.324Z,2.600
2022-11-16T07:31:34.309Z,2.300
2022-11-16T07:32:48.982Z,2.900
2022-11-16T07:33:31.979Z,2.600
2022-11-16T07:34:33.393Z,2.800
2022-11-16T07:35:27.411Z,2.750
2022-11-16T07:36:21.470Z,2.700
2022-11-16T07:37:28.349Z,3.200
2022-11-16T07:38:20.429Z,3.200
2022-11-16T07:39:47.402Z,2.750
2022-11-16T07:40:35.431Z,3.000
2022-11-16T07:41:20.500Z,2.400
2022-11-16T07:42:32.470Z,2.700
2022-11-16T07:43:25.091Z,3.200
2022-11-16T07:44:27.779Z,2.700
2022-11-16T07:45:24.427Z,2.900
2022-11-16T07:46:49.915Z,2.700
2022-11-16T07:47:21.219Z,2.700
2022-11-16T07:48:22.689Z,2.750
2022-11-16T07:49:35.028Z,2.700
2022-11-16T07:50:30.544Z,2.600
2022-11-16T07:51:20.652Z,2.700
2022-11-16T07:52:28.118Z,2.400
2022-11-16T07:53:22.386Z,2.550
2022-11-16T07:54:41.938Z,2.400
2022-11-16T07:55:28.139Z,2.300
2022-11-16T07:56:40.398Z,2.400
2022-11-16T07:57:34.686Z,2.700
2022-11-16T07:58:25.242Z,2.300
2022-11-16T07:59:22.357Z,2.700
2022-11-16T08:00:25.085Z,2.800
2022-11-16T08:01:42.188Z,2.750
2022-11-16T08:02:29.572Z,2.700
2022-11-16T08:03:45.014Z,2.700
2022-11-16T08:04:25.023Z,2.900
2022-11-16T08:05:37.890Z,2.800
2022-11-16T08:06:24.568Z,2.700
2022-11-16T08:07:29.406Z,2.600
2022-11-16T08:08:21.929Z,2.700
2022-11-16T08:09:31.641Z,2.700
2022-11-16T08:10:28.299Z,2.600
2022-11-16T08:11:42.409Z,2.750
2022-11-16T08:12:34.703Z,3.000
2022-11-16T08:13:28.385Z,2.800
2022-11-16T08:14:33.483Z,2.800
2022-11-16T08:15:20.349Z,2.850
2022-11-16T08:16:20.669Z,3.200
2022-11-16T08:17:21.677Z,2.900
2022-11-16T08:18:46.260Z,3.200
2022-11-16T08:19:38.813Z,3.000
2022-11-16T08:20:30.467Z,3.100
2022-11-16T08:21:25.041Z,2.950
2022-11-16T08:22:30.465Z,2.950
2022-11-16T08:23:38.851Z,2.900
2022-11-16T08:24:25.827Z,3.100
2022-11-16T08:25:50.886Z,3.100
2022-11-16T08:26:42.828Z,3.000
2022-11-16T08:27:36.645Z,2.600
2022-11-16T08:28:20.371Z,3.100
2022-11-16T08:29:20.487Z,2.900
2022-11-16T08:30:29.697Z,2.950
2022-11-16T08:31:20.619Z,3.100
2022-11-16T08:32:22.561Z,3.200
2022-11-16T08:33:36.358Z,3.200
2022-11-16T08:34:38.445Z,3.300
2022-11-16T08:35:23.984Z,2.900
2022-11-16T08:36:25.253Z,3.350
2022-11-16T08:37:43.780Z,3.200
2022-11-16T08:38:26.768Z,2.600
2022-11-16T08:39:42.949Z,2.900
2022-11-16T08:40:54.125Z,3.400
2022-11-16T08:41:39.687Z,3.100
2022-11-16T08:42:27.073Z,3.100
2022-11-16T08:43:30.083Z,3.100
2022-11-16T08:44:22.132Z,3.050
2022-11-16T08:45:28.183Z,3.100
2022-11-16T08:46:22.764Z,2.900
2022-11-16T08:48:03.382Z,3.050
2022-11-16T08:48:43.904Z,3.300
2022-11-16T08:49:28.409Z,3.200
2022-11-16T08:50:44.159Z,3.200
2022-11-16T08:51:29.176Z,3.150
2022-11-16T08:52:32.968Z,2.900
2022-11-16T08:53:25.264Z,2.900
2022-11-16T08:55:03.467Z,2.600
2022-11-16T08:55:42.534Z,2.900
2022-11-16T08:56:33.744Z,3.350
2022-11-16T08:57:37.618Z,3.100
2022-11-16T08:58:45.008Z,2.950
2022-11-16T08:59:25.553Z,3.300
2022-11-16T09:00:21.419Z,3.000
2022-11-16T09:01:24.392Z,2.800
2022-11-16T09:02:51.221Z,3.400
2022-11-16T09:03:39.541Z,3.100
2022-11-16T09:04:22.864Z,3.100
2022-11-16T09:05:36.169Z,3.050
2022-11-16T09:06:28.912Z,2.900
2022-11-16T09:07:21.997Z,3.100
2022-11-16T09:08:26.543Z,3.300
2022-11-16T09:09:51.696Z,3.150
2022-11-16T09:10:38.800Z,2.800
2022-11-16T09:11:26.556Z,3.000
2022-11-16T09:12:32.635Z,3.000
2022-11-16T09:13:32.484Z,3.100
2022-11-16T09:14:26.462Z,2.600
2022-11-16T09:15:24.615Z,2.600
2022-11-16T09:16:23.519Z,2.700
2022-11-16T09:17:26.524Z,2.650
2022-11-16T09:18:33.550Z,2.800
2022-11-16T09:19:44.867Z,2.850
2022-11-16T09:20:37.449Z,2.700
2022-11-16T09:21:33.913Z,2.800
2022-11-16T09:22:26.040Z,3.000
2022-11-16T09:23:28.237Z,2.700
2022-11-16T09:24:20.290Z,2.800
2022-11-16T09:25:32.247Z,2.700
2022-11-16T09:27:01.077Z,2.600
2022-11-16T09:27:40.050Z,2.450
2022-11-16T09:28:23.020Z,2.300
2022-11-16T09:29:30.922Z,2.700
2022-11-16T09:30:31.152Z,2.700
2022-11-16T09:31:28.402Z,2.500
2022-11-16T09:32:35.805Z,2.500
2022-11-16T09:33:23.525Z,3.100
2022-11-16T09:34:26.603Z,2.600
2022-11-16T09:35:39.710Z,2.400
2022-11-16T09:36:31.710Z,2.600
2022-11-16T09:37:23.015Z,2.800
2022-11-16T09:38:40.632Z,2.700
2022-11-16T09:39:31.478Z,2.600
2022-11-16T09:40:24.140Z,2.500
2022-11-16T09:42:42.512Z,2.500
2022-11-16T09:43:44.071Z,2.400
2022-11-16T09:44:27.232Z,2.300
2022-11-16T09:45:21.667Z,2.000
2022-11-16T09:46:27.029Z,2.400
2022-11-16T09:47:26.478Z,2.300
2022-11-16T09:48:54.275Z,2.150
2022-11-16T09:49:49.396Z,2.300
2022-11-16T09:50:36.227Z,2.200
2022-11-16T09:51:23.259Z,2.300
2022-11-16T09:52:24.851Z,2.200
2022-11-16T09:53:29.283Z,2.150
2022-11-16T09:54:22.456Z,2.200
2022-11-16T09:55:57.981Z,2.100
2022-11-16T09:56:52.898Z,2.000
2022-11-16T09:57:33.916Z,2.000
2022-11-16T09:58:26.876Z,2.000
2022-11-16T09:59:28.833Z,2.000
2022-11-16T10:00:21.919Z,2.050
2022-11-16T10:01:26.750Z,1.800
2022-11-16T10:02:19.815Z,2.000
2022-11-16T10:03:38.790Z,1.950
2022-11-16T10:04:42.969Z,2.000
2022-11-16T10:05:28.591Z,1.800
2022-11-16T10:06:33.085Z,1.650
2022-11-16T10:07:27.763Z,1.700
2022-11-16T10:08:30.706Z,1.700
2022-11-16T10:09:26.042Z,1.800
2022-11-16T10:10:59.771Z,1.450
2022-11-16T10:11:45.698Z,1.700
2022-11-16T10:12:32.455Z,1.700
2022-11-16T10:13:22.919Z,1.700
2022-11-16T10:14:31.081Z,1.800
2022-11-16T10:15:25.167Z,2.100
2022-11-16T10:16:30.365Z,1.700
2022-11-16T10:17:21.563Z,1.750
2022-11-16T10:18:49.814Z,1.700
2022-11-16T10:19:27.324Z,1.500
2022-11-16T10:20:21.664Z,1.650
2022-11-16T10:21:36.478Z,1.500
2022-11-16T10:22:41.226Z,1.700
2022-11-16T10:23:21.354Z,1.500
2022-11-16T10:24:24.733Z,1.500
2022-11-16T10:25:32.082Z,1.550
2022-11-16T10:26:39.511Z,1.600
2022-11-16T10:27:24.897Z,1.600
2022-11-16T10:28:39.894Z,1.700
2022-11-16T10:29:31.396Z,1.800
2022-11-16T10:30:26.243Z,1.550
2022-11-16T10:31:28.247Z,1.600
2022-11-16T10:32:22.641Z,1.700
2022-11-16T10:33:44.006Z,1.750
2022-11-16T10:34:28.782Z,1.400
2022-11-16T10:35:44.560Z,2.100
2022-11-16T10:36:29.174Z,2.000
2022-11-16T10:37:32.634Z,1.900
2022-11-16T10:38:37.880Z,1.900
2022-11-16T10:39:25.260Z,1.600
2022-11-16T10:40:44.108Z,1.900
2022-11-16T10:41:26.840Z,1.900
2022-11-16T10:42:34.081Z,2.050
2022-11-16T10:43:40.782Z,1.850
2022-11-16T10:44:36.529Z,2.000
2022-11-16T10:45:26.973Z,2.100
2022-11-16T10:46:28.788Z,2.000
2022-11-16T10:47:28.216Z,1.750
2022-11-16T10:48:35.671Z,1.600
2022-11-16T10:49:22.678Z,1.700
2022-11-16T10:50:44.850Z,1.700
2022-11-16T10:51:37.841Z,1.600
2022-11-16T10:52:29.863Z,1.500
2022-11-16T10:53:23.329Z,1.800
2022-11-16T10:54:26.673Z,1.600
2022-11-16T10:55:36.094Z,1.800
2022-11-16T10:56:26.323Z,1.800
2022-11-16T10:57:51.283Z,2.200
2022-11-16T10:58:23.686Z,1.900
2022-11-16T10:59:33.211Z,1.900
2022-11-16T11:00:27.516Z,1.800
2022-11-16T11:01:23.795Z,2.200
2022-11-16T11:02:27.096Z,2.100
2022-11-16T11:03:31.436Z,2.300
2022-11-16T11:04:26.756Z,2.000
2022-11-16T11:05:43.219Z,2.000
2022-11-16T11:06:35.518Z,1.900
2022-11-16T11:07:21.815Z,1.900
2022-11-16T11:08:25.084Z,1.800
2022-11-16T11:09:28.490Z,1.650
2022-11-16T11:10:20.412Z,1.800
2022-11-16T11:11:47.979Z,1.800
2022-11-16T11:12:51.662Z,1.700
2022-11-16T11:13:38.908Z,1.900
2022-11-16T11:14:24.204Z,1.900
2022-11-16T11:15:27.192Z,1.700
2022-11-16T11:16:23.115Z,1.850
2022-11-16T11:17:23.868Z,1.700
2022-11-16T11:19:03.683Z,1.850
2022-11-16T11:19:54.684Z,1.700
2022-11-16T11:20:46.050Z,1.800
2022-11-16T11:21:34.520Z,1.700
2022-11-16T11:22:32.476Z,1.900
2022-11-16T11:23:28.013Z,1.650
2022-11-16T11:24:45.492Z,1.600
2022-11-16T11:25:23.904Z,1.800
2022-11-16T11:26:21.174Z,1.700
2022-11-16T11:27:37.882Z,1.800
2022-11-16T11:28:35.246Z,1.800
2022-11-16T11:29:36.847Z,1.600
2022-11-16T11:30:33.952Z,1.850
2022-11-16T11:32:26.666Z,1.500
2022-11-16T11:33:40.987Z,1.600
2022-11-16T11:34:37.445Z,1.550
2022-11-16T11:35:32.656Z,1.450
2022-11-16T11:36:24.443Z,1.400
2022-11-16T11:37:26.695Z,1.650
2022-11-16T11:38:31.862Z,1.600
2022-11-16T11:39:22.258Z,1.450
2022-11-16T11:41:35.864Z,1.500
2022-11-16T11:42:30.165Z,1.550
2022-11-16T11:43:25.608Z,1.200
2022-11-16T11:44:23.652Z,1.450
2022-11-16T11:45:34.540Z,1.400
2022-11-16T11:46:42.227Z,1.400
2022-11-16T11:47:59.555Z,1.400
2022-11-16T11:48:50.101Z,1.400
2022-11-16T11:49:33.887Z,1.300
2022-11-16T11:50:25.593Z,1.500
2022-11-16T11:51:22.097Z,1.300
2022-11-16T11:52:37.679Z,1.100
2022-11-16T11:53:26.896Z,1.300
2022-11-16T11:54:22.610Z,1.250
2022-11-16T11:55:25.443Z,1.400
2022-11-16T11:56:32.829Z,1.500
2022-11-16T11:57:32.537Z,1.500
2022-11-16T11:58:24.673Z,1.500
2022-11-16T11:59:35.310Z,1.300
2022-11-16T12:00:25.608Z,1.400
2022-11-16T12:01:26.429Z,1.200
2022-11-16T12:02:27.117Z,1.600
2022-11-16T12:03:21.537Z,1.200
2022-11-16T12:04:26.692Z,1.500
2022-11-16T12:05:20.978Z,1.100
2022-11-16T12:06:31.486Z,1.100
2022-11-16T12:07:29.085Z,1.200
2022-11-16T12:08:23.133Z,1.100
2022-11-16T12:09:24.748Z,1.150
2022-11-16T12:10:32.766Z,1.150
2022-11-16T12:11:21.793Z,1.100
2022-11-16T12:12:21.653Z,1.200
2022-11-16T12:13:34.879Z,1.150
2022-11-16T12:14:42.609Z,1.100
2022-11-16T12:15:27.235Z,1.050
2022-11-16T12:16:27.402Z,1.200
2022-11-16T12:17:21.913Z,1.300
2022-11-16T12:18:24.312Z,1.250
2022-11-16T12:19:21.402Z,1.100
2022-11-16T12:20:32.713Z,1.200
2022-11-16T12:21:27.606Z,1.100
2022-11-16T12:22:32.838Z,1.100
2022-11-16T12:23:21.176Z,1.300
2022-11-16T12:24:24.323Z,0.950
2022-11-16T12:25:25.355Z,1.000
2022-11-16T12:26:22.406Z,0.950
2022-11-16T12:27:34.461Z,1.100
2022-11-16T12:28:29.902Z,0.900
2022-11-16T12:29:25.024Z,1.000
2022-11-16T12:30:25.873Z,1.100
2022-11-16T12:31:30.091Z,1.000
2022-11-16T12:32:23.141Z,1.000
2022-11-16T12:33:24.702Z,0.850
2022-11-16T12:34:31.398Z,0.900
2022-11-16T12:35:32.217Z,1.100
2022-11-16T12:36:23.985Z,1.000
2022-11-16T12:37:25.813Z,1.000
2022-11-16T12:38:29.421Z,1.000
2022-11-16T12:39:22.423Z,1.050
2022-11-16T12:40:22.080Z,1.000
2022-11-16T12:41:35.158Z,1.500
2022-11-16T12:42:30.011Z,1.250
2022-11-16T12:43:23.135Z,1.250
2022-11-16T12:44:32.014Z,1.100
2022-11-16T12:45:32.461Z,1.150
2022-11-16T12:46:32.244Z,1.100
2022-11-16T12:47:25.875Z,1.200
2022-11-16T12:48:24.951Z,1.200
2022-11-16T12:49:29.962Z,1.150
2022-11-16T12:50:38.310Z,1.100
2022-11-16T12:51:33.377Z,1.100
2022-11-16T12:52:33.083Z,1.300
2022-11-16T12:53:26.506Z,1.100
2022-11-16T12:54:22.259Z,1.200
2022-11-16T12:55:28.470Z,1.100
2022-11-16T12:56:25.269Z,1.200
2022-11-16T12:57:23.279Z,1.250
2022-11-16T12:58:21.657Z,1.300
2022-11-16T12:59:26.498Z,1.150
2022-11-16T13:00:31.278Z,1.150
2022-11-16T13:01:21.817Z,1.200
2022-11-16T13:02:29.057Z,1.200
2022-11-16T13:03:31.082Z,1.150
2022-11-16T13:04:26.671Z,1.200
2022-11-16T13:05:21.692Z,1.150
2022-11-16T13:06:27.589Z,1.200
2022-11-16T13:07:21.198Z,1.100
2022-11-16T13:08:26.786Z,1.150
2022-11-16T13:09:29.573Z,1.200
2022-11-16T13:10:20.814Z,1.150
2022-11-16T13:11:26.045Z,1.000
2022-11-16T13:12:19.493Z,1.100
2022-11-16T13:13:41.637Z,1.000
2022-11-16T13:14:28.765Z,0.850
2022-11-16T13:15:22.640Z,1.050
2022-11-16T13:16:31.370Z,0.850
2022-11-16T13:17:28.065Z,0.900
2022-11-16T13:18:23.524Z,0.950
2022-11-16T13:19:19.118Z,1.100
2022-11-16T13:20:33.983Z,1.100
2022-11-16T13:21:27.682Z,1.000
2022-11-16T13:22:22.741Z,1.200
2022-11-16T13:23:34.766Z,1.050
2022-11-16T13:24:24.275Z,0.900
2022-11-16T13:25:23.639Z,1.000
2022-11-16T13:26:24.249Z,1.000
2022-11-16T13:27:31.461Z,1.100
2022-11-16T13:28:20.800Z,1.000
2022-11-16T13:29:24.042Z,1.200
2022-11-16T13:30:29.168Z,1.050
2022-11-16T13:31:31.846Z,1.100
2022-11-16T13:32:27.206Z,0.900
2022-11-16T13:33:20.600Z,1.250
2022-11-16T13:34:29.433Z,1.800
2022-11-16T13:35:24.864Z,2.300
2022-11-16T13:36:23.411Z,2.250
2022-11-16T13:37:31.261Z,2.100
2022-11-16T13:38:32.251Z,1.900
2022-11-16T13:39:26.203Z,2.100
2022-11-16T13:40:19.907Z,2.600
2022-11-16T13:41:25.755Z,2.850
2022-11-16T13:42:26.998Z,2.750
2022-11-16T13:43:21.521Z,2.200
2022-11-16T13:44:34.521Z,2.250
2022-11-16T13:45:28.546Z,1.700
2022-11-16T13:46:48.814Z,1.700
2022-11-16T13:47:20.578Z,1.500
2022-11-16T13:48:21.038Z,1.450
2022-11-16T13:49:25.879Z,1.400
2022-11-16T13:50:23.774Z,1.350
2022-11-16T13:51:31.205Z,1.400
2022-11-16T13:52:31.781Z,1.400
2022-11-16T13:54:44.137Z,1.100
2022-11-16T13:54:46.630Z,1.100
2022-11-16T13:55:25.051Z,1.250
2022-11-16T13:56:29.040Z,1.250
2022-11-16T13:57:21.467Z,1.100
2022-11-16T13:58:28.700Z,1.050
2022-11-16T13:59:30.805Z,1.100
2022-11-16T14:00:25.302Z,1.100
2022-11-16T14:01:22.169Z,1.100
2022-11-16T14:02:29.351Z,1.200
2022-11-16T14:03:27.768Z,1.100
2022-11-16T14:04:22.825Z,1.100
2022-11-16T14:05:31.665Z,1.300
2022-11-16T14:06:31.141Z,0.900
2022-11-16T14:07:23.289Z,0.950
2022-11-16T14:08:19.484Z,1.000
2022-11-16T14:09:23.486Z,1.000
2022-11-16T14:10:26.391Z,0.950